Westbury, NY

11:25 PM EST on November 26, 2014 (GMT -0500)
Republic | Change Station
CLOSE
Current Station
Airport
Location: Farmingdale,
Elevation: 82 ft
Nearby Weather Stations

Elev 82 ft 40.73 °N, 73.42 °W | Updated 25 minutes ago

Snow
Snow
36 °F
Feels Like 26 °F
N
16
Wind Variable Wind from NNW
Gusts 23 mph

Today
High -- | Low -- °F
--% Chance of Precip.
Yesterday
High -- | Low -- °F
Precip. -- in
6:53 AM 4:29 PM
Waxing Crescent, 25% visible
Pressure 29.77 in
Visibility 6.0 miles
Clouds Scattered Clouds 900 ft
Mostly Cloudy 1400 ft
Overcast 1900 ft
Windchill 26 °F
Dew Point 32 °F
Humidity 86%
Rainfall 0.41 in
Snow Depth Not available.
UV 0 out of 12
Pollen .10 out of 12
Air Quality Not available.
Flu Activity Not available.
SPECI KFRG 270400Z AUTO 34014G20KT 6SM UP BR SCT009 BKN014 OVC019 02/00 A2977 RMK AO2 P0000 T00220000

More Conditions Fewer Conditions

Pressure 29.77 in
Visibility 6.0 miles
Clouds Scattered Clouds 900 ft
Mostly Cloudy 1400 ft
Overcast 1900 ft
Windchill 26 °F
Dew Point 32 °F
Humidity 86%
Rainfall 0.41 in
Snow Depth Not available.
UV 0 out of 12
Pollen .10 out of 12
Air Quality Not available.
Flu Activity Not available.
SPECI KFRG 270400Z AUTO 34014G20KT 6SM UP BR SCT009 BKN014 OVC019 02/00 A2977 RMK AO2 P0000 T00220000

More Conditions Fewer Conditions

10-Day Weather Forecast

Almanac

Astronomy

Nov. 26, 2014 Rise Set
Actual Time
Civil Twilight
Nautical Twilight
Astronomical Twilight
Moon
Length of Visible Light
Length of Day
Tomorrow will be .
, % of the Moon is Illuminated

Today's Extremes

State Highs State Lows

Community

WunderPhotos

Upload Photos

1,773,958 photos uploaded!

WunderBlogs® & News

Nearby

Air Quality

  Air Quality AQ Index Pollutant
Not available.

Snow Depth

Station Depth Elevation

Earthquake Activity

City Distance Mag. Time & Date
Minimum magnitude displayed is 2.5.

Coastal Water Temperatures

Place Temperature

Nearby Weather Stations